Time;durP1;ratioP1;P1;durP2;ratioP2;P2;SDS_P1;SDS_P2;PMS_P1;PMS_P2;Temp;Humidity;BMP_temperature;BMP_pressure;BME280_temperature;BME280_humidity;BME280_pressure;Samples;Min_cycle;Max_cycle;Signal;HPM_P1;HPM_P2
2023/12/26 00:01:34;;;;;;;8.05;2.28;;;;;;;;;;5031885;28;20555;-67
2023/12/26 00:04:01;;;;;;;9.98;3.08;;;;;;;;;;5023104;28;20036;-68
2023/12/26 00:06:27;;;;;;;8.07;3.30;;;;;;;;;;5032554;28;20030;-67
2023/12/26 00:08:53;;;;;;;13.23;5.00;;;;;;;;;;5026687;28;20067;-67
2023/12/26 00:11:20;;;;;;;14.77;4.05;;;;;;;;;;5021050;28;20029;-67
2023/12/26 00:13:46;;;;;;;7.88;3.35;;;;;;;;;;5015478;28;20099;-68
2023/12/26 00:16:12;;;;;;;7.45;3.13;;;;;;;;;;5018117;28;20033;-67
2023/12/26 00:18:39;;;;;;;6.72;3.08;;;;;;;;;;5021788;28;20037;-67
2023/12/26 00:21:05;;;;;;;4.80;2.83;;;;;;;;;;5021325;28;20067;-67
2023/12/26 00:23:31;;;;;;;9.07;2.53;;;;;;;;;;5026054;28;20034;-67
2023/12/26 00:25:58;;;;;;;8.85;2.95;;;;;;;;;;5023017;28;20033;-67
2023/12/26 00:28:24;;;;;;;5.30;2.33;;;;;;;;;;5024146;28;20965;-67
2023/12/26 00:30:51;;;;;;;8.43;2.00;;;;;;;;;;5026965;28;20076;-68
2023/12/26 00:33:17;;;;;;;6.47;2.55;;;;;;;;;;5026758;28;20107;-67
2023/12/26 00:35:44;;;;;;;5.72;3.40;;;;;;;;;;5027950;28;20032;-68
2023/12/26 00:38:10;;;;;;;10.40;3.42;;;;;;;;;;5024657;28;20025;-67
2023/12/26 00:40:41;;;;;;;5.93;2.85;;;;;;;;;;5025563;28;20634;-67
2023/12/26 00:43:07;;;;;;;8.75;2.40;;;;;;;;;;5026404;28;20030;-67
2023/12/26 00:45:33;;;;;;;4.97;2.53;;;;;;;;;;5024365;28;20021;-67
2023/12/26 00:47:59;;;;;;;11.15;2.92;;;;;;;;;;5018112;28;20029;-67
2023/12/26 00:50:25;;;;;;;12.60;3.40;;;;;;;;;;5021743;28;20037;-66
2023/12/26 00:52:55;;;;;;;4.28;2.60;;;;;;;;;;5021770;28;20105;-67
2023/12/26 00:55:22;;;;;;;7.93;3.20;;;;;;;;;;5029044;28;20029;-67
2023/12/26 00:57:48;;;;;;;9.13;2.75;;;;;;;;;;5023326;28;20622;-67
2023/12/26 01:00:15;;;;;;;6.25;2.60;;;;;;;;;;5019317;28;20056;-67
2023/12/26 01:02:41;;;;;;;2.65;2.05;;;;;;;;;;5016890;28;20022;-67
2023/12/26 01:05:07;;;;;;;7.93;2.58;;;;;;;;;;5024831;28;20600;-67
2023/12/26 01:07:34;;;;;;;3.65;2.63;;;;;;;;;;5024923;28;20049;-67
2023/12/26 01:10:04;;;;;;;6.88;2.70;;;;;;;;;;5019008;28;20487;-67
2023/12/26 01:12:30;;;;;;;5.13;2.80;;;;;;;;;;5014873;28;20508;-67
2023/12/26 01:14:57;;;;;;;6.13;2.30;;;;;;;;;;5018590;28;20365;-67
2023/12/26 01:17:23;;;;;;;10.85;2.30;;;;;;;;;;5023217;28;20388;-67
2023/12/26 01:19:49;;;;;;;5.22;2.45;;;;;;;;;;5010458;28;20038;-67
2023/12/26 01:22:16;;;;;;;7.57;2.40;;;;;;;;;;5021861;28;20028;-67
2023/12/26 01:24:43;;;;;;;4.28;1.92;;;;;;;;;;5017843;28;20017;-67
2023/12/26 01:27:09;;;;;;;3.83;1.75;;;;;;;;;;5015504;28;20033;-67
2023/12/26 01:29:35;;;;;;;5.68;2.00;;;;;;;;;;5023862;28;20393;-67
2023/12/26 01:32:01;;;;;;;3.90;2.85;;;;;;;;;;5020703;28;20029;-66
2023/12/26 01:34:28;;;;;;;10.43;2.20;;;;;;;;;;5024746;28;20018;-67
2023/12/26 01:36:54;;;;;;;3.83;2.35;;;;;;;;;;5023563;28;20040;-67
2023/12/26 01:39:20;;;;;;;11.32;4.10;;;;;;;;;;5026970;28;20556;-67
2023/12/26 01:41:46;;;;;;;9.93;3.70;;;;;;;;;;5024192;28;20477;-67
2023/12/26 01:44:13;;;;;;;11.75;5.30;;;;;;;;;;5009979;28;20560;-66
2023/12/26 01:46:39;;;;;;;8.70;4.45;;;;;;;;;;5007712;28;20389;-67
2023/12/26 01:49:05;;;;;;;9.65;3.53;;;;;;;;;;5023344;28;20124;-67
2023/12/26 01:51:31;;;;;;;8.38;2.90;;;;;;;;;;5017116;28;20056;-67
2023/12/26 01:53:59;;;;;;;11.93;2.50;;;;;;;;;;5019338;28;20033;-67
2023/12/26 01:56:26;;;;;;;5.45;2.10;;;;;;;;;;5016594;28;20488;-67
2023/12/26 01:58:53;;;;;;;3.53;2.17;;;;;;;;;;5023782;28;20045;-67
2023/12/26 02:01:19;;;;;;;10.88;2.88;;;;;;;;;;5025975;28;20109;-67
2023/12/26 02:03:46;;;;;;;8.60;2.13;;;;;;;;;;5025804;28;20026;-67
2023/12/26 02:06:14;;;;;;;7.88;2.20;;;;;;;;;;5018376;28;20057;-67
2023/12/26 02:08:41;;;;;;;5.00;2.50;;;;;;;;;;5038112;28;20040;-68
2023/12/26 02:11:07;;;;;;;15.93;2.30;;;;;;;;;;5022562;28;20034;-67
2023/12/26 02:13:34;;;;;;;4.95;1.80;;;;;;;;;;5023521;28;20064;-67
2023/12/26 02:16:02;;;;;;;2.22;1.77;;;;;;;;;;5021752;28;20052;-67
2023/12/26 02:18:28;;;;;;;2.45;2.25;;;;;;;;;;5023202;28;20034;-67
2023/12/26 02:20:54;;;;;;;5.32;2.00;;;;;;;;;;5018835;28;20524;-66
2023/12/26 02:23:21;;;;;;;3.78;1.63;;;;;;;;;;5023442;28;20428;-67
2023/12/26 02:25:47;;;;;;;7.28;2.10;;;;;;;;;;5021796;28;20029;-67
2023/12/26 02:28:13;;;;;;;3.80;1.85;;;;;;;;;;5011142;28;20053;-67
2023/12/26 02:30:40;;;;;;;11.18;2.80;;;;;;;;;;5019054;28;20061;-67
2023/12/26 02:33:07;;;;;;;8.55;2.15;;;;;;;;;;5022306;28;20021;-66
2023/12/26 02:35:33;;;;;;;4.75;2.28;;;;;;;;;;5020693;28;20029;-68
2023/12/26 02:38:01;;;;;;;5.53;2.03;;;;;;;;;;5016433;28;20029;-67
2023/12/26 02:40:27;;;;;;;5.68;2.17;;;;;;;;;;5016804;28;20033;-67
2023/12/26 02:42:53;;;;;;;2.15;1.70;;;;;;;;;;5015500;28;20041;-67
2023/12/26 02:45:20;;;;;;;6.30;2.70;;;;;;;;;;5019784;28;20072;-69
2023/12/26 02:47:46;;;;;;;2.42;2.22;;;;;;;;;;5016974;28;20412;-67
2023/12/26 02:50:12;;;;;;;3.58;2.20;;;;;;;;;;5020516;28;20037;-67
2023/12/26 02:52:39;;;;;;;6.40;2.03;;;;;;;;;;5018023;28;20222;-66
2023/12/26 02:55:06;;;;;;;4.60;1.88;;;;;;;;;;5021807;28;20045;-67
2023/12/26 02:57:32;;;;;;;3.72;2.20;;;;;;;;;;5015114;28;20160;-67
2023/12/26 02:59:58;;;;;;;4.72;3.05;;;;;;;;;;5014464;28;20443;-67
2023/12/26 03:02:24;;;;;;;4.28;2.05;;;;;;;;;;5014404;28;20512;-67
2023/12/26 03:04:51;;;;;;;2.92;1.48;;;;;;;;;;5021175;28;20026;-67
2023/12/26 03:07:17;;;;;;;3.65;1.95;;;;;;;;;;5012133;28;20030;-67
2023/12/26 03:09:43;;;;;;;6.43;2.00;;;;;;;;;;5014784;28;20046;-67
2023/12/26 03:12:09;;;;;;;1.67;1.52;;;;;;;;;;5032850;28;20531;-66
2023/12/26 03:14:36;;;;;;;8.32;3.78;;;;;;;;;;5018869;28;20476;-66
2023/12/26 03:17:03;;;;;;;7.18;1.92;;;;;;;;;;5017429;28;20037;-67
2023/12/26 03:19:29;;;;;;;2.72;1.48;;;;;;;;;;5015754;28;20127;-67
2023/12/26 03:21:55;;;;;;;1.23;1.23;;;;;;;;;;5023635;28;20539;-66
2023/12/26 03:24:21;;;;;;;1.73;1.55;;;;;;;;;;5020050;28;20060;-67
2023/12/26 03:26:47;;;;;;;3.08;1.67;;;;;;;;;;5017998;28;20057;-67
2023/12/26 03:29:14;;;;;;;2.35;1.60;;;;;;;;;;5018105;28;20086;-67
2023/12/26 03:31:44;;;;;;;5.63;1.70;;;;;;;;;;5021540;28;20112;-67
2023/12/26 03:34:10;;;;;;;1.90;1.45;;;;;;;;;;5021423;28;20026;-66
2023/12/26 03:36:42;;;;;;;3.95;1.80;;;;;;;;;;5022484;28;20028;-66
2023/12/26 03:39:09;;;;;;;1.60;1.50;;;;;;;;;;5021022;28;20392;-67
2023/12/26 03:41:36;;;;;;;5.95;1.70;;;;;;;;;;5017552;28;20029;-66
2023/12/26 03:44:03;;;;;;;1.30;1.30;;;;;;;;;;5012774;28;20068;-67
2023/12/26 03:46:29;;;;;;;1.70;1.60;;;;;;;;;;5029426;28;20029;-67
2023/12/26 03:48:55;;;;;;;2.38;1.70;;;;;;;;;;5016327;28;20075;-66
2023/12/26 03:51:21;;;;;;;5.30;2.10;;;;;;;;;;5023450;28;20029;-67
2023/12/26 03:53:48;;;;;;;2.22;1.60;;;;;;;;;;5019048;28;20124;-67
2023/12/26 03:56:14;;;;;;;2.47;1.98;;;;;;;;;;5020745;28;20626;-66
2023/12/26 03:58:40;;;;;;;2.80;1.73;;;;;;;;;;5020122;28;20475;-66
2023/12/26 04:01:06;;;;;;;1.67;1.60;;;;;;;;;;5017044;28;20088;-67
2023/12/26 04:03:33;;;;;;;1.88;1.30;;;;;;;;;;5013811;28;20076;-66
2023/12/26 04:05:59;;;;;;;3.03;1.70;;;;;;;;;;5017840;28;20049;-66
2023/12/26 04:08:26;;;;;;;2.45;1.60;;;;;;;;;;5019071;28;20078;-66
2023/12/26 04:10:53;;;;;;;3.65;1.50;;;;;;;;;;5018934;28;20184;-66
2023/12/26 04:13:19;;;;;;;1.70;1.60;;;;;;;;;;5022292;28;20030;-67
2023/12/26 04:15:45;;;;;;;3.17;1.85;;;;;;;;;;5015870;28;20045;-67
2023/12/26 04:18:11;;;;;;;3.97;2.00;;;;;;;;;;5008577;28;20036;-66
2023/12/26 04:20:37;;;;;;;4.25;1.80;;;;;;;;;;5009206;28;20025;-67
2023/12/26 04:23:03;;;;;;;2.97;1.70;;;;;;;;;;5013076;28;20404;-67
2023/12/26 04:25:30;;;;;;;1.67;1.58;;;;;;;;;;5016732;28;20037;-66
2023/12/26 04:27:56;;;;;;;1.25;1.25;;;;;;;;;;5014050;28;20026;-67
2023/12/26 04:30:22;;;;;;;2.95;1.50;;;;;;;;;;5014015;28;20029;-67
2023/12/26 04:32:48;;;;;;;2.67;1.65;;;;;;;;;;5023952;28;20041;-67
2023/12/26 04:35:14;;;;;;;1.85;1.73;;;;;;;;;;5015988;28;20029;-67
2023/12/26 04:37:41;;;;;;;2.53;1.83;;;;;;;;;;5014615;28;20025;-67
2023/12/26 04:40:07;;;;;;;6.93;1.80;;;;;;;;;;5025293;28;20068;-67
2023/12/26 04:42:33;;;;;;;9.75;1.65;;;;;;;;;;5013184;28;20033;-67
2023/12/26 04:44:59;;;;;;;3.55;1.80;;;;;;;;;;5025839;28;20033;-66
2023/12/26 04:47:28;;;;;;;2.70;1.75;;;;;;;;;;5020419;28;21381;-67
2023/12/26 04:49:54;;;;;;;3.40;1.55;;;;;;;;;;5017239;28;20034;-67
2023/12/26 04:52:21;;;;;;;1.42;1.40;;;;;;;;;;5015668;28;20082;-67
2023/12/26 04:54:47;;;;;;;1.92;1.75;;;;;;;;;;5022732;28;20036;-67
2023/12/26 04:57:13;;;;;;;2.28;1.63;;;;;;;;;;5023559;28;20048;-67
2023/12/26 04:59:40;;;;;;;1.52;1.42;;;;;;;;;;5020218;28;20497;-67
2023/12/26 05:02:06;;;;;;;5.55;1.48;;;;;;;;;;5021281;28;20022;-66
2023/12/26 05:04:32;;;;;;;2.65;1.60;;;;;;;;;;5018624;28;20029;-67
2023/12/26 05:06:58;;;;;;;4.30;1.70;;;;;;;;;;5020984;28;20034;-67
2023/12/26 05:09:24;;;;;;;5.60;2.00;;;;;;;;;;5012779;28;20037;-66
2023/12/26 05:11:51;;;;;;;2.25;1.55;;;;;;;;;;5015936;28;20048;-67
2023/12/26 05:14:18;;;;;;;4.70;2.15;;;;;;;;;;5018091;28;20126;-67
2023/12/26 05:16:46;;;;;;;4.30;1.83;;;;;;;;;;5024882;28;20112;-67
2023/12/26 05:19:12;;;;;;;2.00;1.63;;;;;;;;;;5023114;28;20073;-66
2023/12/26 05:21:38;;;;;;;3.13;2.00;;;;;;;;;;5013645;28;20032;-67
2023/12/26 05:24:05;;;;;;;3.22;1.77;;;;;;;;;;5018896;28;20028;-67
2023/12/26 05:26:37;;;;;;;3.30;1.80;;;;;;;;;;5015022;28;20025;-66
2023/12/26 05:29:03;;;;;;;6.40;1.95;;;;;;;;;;5021265;28;20033;-67
2023/12/26 05:31:29;;;;;;;5.15;1.77;;;;;;;;;;5017076;28;20040;-67
2023/12/26 05:33:56;;;;;;;7.15;2.05;;;;;;;;;;5020341;28;20195;-66
2023/12/26 05:36:22;;;;;;;1.50;1.40;;;;;;;;;;5010169;28;20061;-67
2023/12/26 05:38:48;;;;;;;1.63;1.50;;;;;;;;;;5015155;28;20087;-66
2023/12/26 05:41:15;;;;;;;3.85;1.58;;;;;;;;;;5021147;28;20033;-67
2023/12/26 05:43:41;;;;;;;1.25;1.25;;;;;;;;;;5016896;28;20032;-66
2023/12/26 05:46:07;;;;;;;3.13;1.70;;;;;;;;;;5016188;28;20033;-67
2023/12/26 05:48:34;;;;;;;10.27;2.65;;;;;;;;;;5019823;28;21313;-67
2023/12/26 05:51:00;;;;;;;7.63;2.53;;;;;;;;;;5016660;28;20384;-67
2023/12/26 05:53:29;;;;;;;2.58;1.50;;;;;;;;;;5018152;28;20025;-66
2023/12/26 05:55:56;;;;;;;2.08;1.98;;;;;;;;;;5014052;28;20022;-67
2023/12/26 05:58:23;;;;;;;6.90;1.63;;;;;;;;;;5016164;28;20204;-67
2023/12/26 06:00:53;;;;;;;6.18;2.17;;;;;;;;;;5023028;28;20072;-67
2023/12/26 06:03:19;;;;;;;6.88;2.13;;;;;;;;;;5017811;28;20116;-66
2023/12/26 06:05:47;;;;;;;8.60;1.90;;;;;;;;;;5012549;28;20026;-66
2023/12/26 06:08:14;;;;;;;2.10;1.48;;;;;;;;;;5016305;28;20029;-66
2023/12/26 06:10:40;;;;;;;1.95;1.30;;;;;;;;;;5015252;28;20068;-66
2023/12/26 06:13:06;;;;;;;3.95;1.63;;;;;;;;;;5013888;28;20089;-66
2023/12/26 06:15:32;;;;;;;3.67;1.80;;;;;;;;;;5017340;28;20645;-67
2023/12/26 06:17:59;;;;;;;9.35;2.47;;;;;;;;;;5014923;28;20036;-66
2023/12/26 06:20:27;;;;;;;2.70;1.42;;;;;;;;;;5012274;28;20413;-66
2023/12/26 06:22:53;;;;;;;2.05;1.95;;;;;;;;;;5021534;28;20024;-66
2023/12/26 06:25:20;;;;;;;1.60;1.50;;;;;;;;;;5020926;28;20079;-67
2023/12/26 06:27:46;;;;;;;2.97;1.90;;;;;;;;;;5021719;28;20040;-66
2023/12/26 06:30:12;;;;;;;7.88;2.08;;;;;;;;;;5022514;28;20018;-67
2023/12/26 06:32:38;;;;;;;2.17;1.85;;;;;;;;;;5017325;28;20030;-67
2023/12/26 06:35:05;;;;;;;3.85;1.70;;;;;;;;;;5016965;28;20029;-67
2023/12/26 06:37:31;;;;;;;1.88;1.77;;;;;;;;;;5015484;28;20055;-66
2023/12/26 06:39:57;;;;;;;3.28;2.10;;;;;;;;;;5019905;28;20021;-67
2023/12/26 06:42:23;;;;;;;1.45;1.30;;;;;;;;;;5014578;28;20096;-67
2023/12/26 06:44:49;;;;;;;8.98;1.77;;;;;;;;;;5012148;28;20113;-67
2023/12/26 06:47:15;;;;;;;3.15;1.95;;;;;;;;;;5011334;28;21640;-66
2023/12/26 06:49:45;;;;;;;1.27;1.27;;;;;;;;;;5020081;28;20495;-67
2023/12/26 06:52:15;;;;;;;3.63;1.65;;;;;;;;;;5022818;28;20036;-67
2023/12/26 06:54:41;;;;;;;3.22;2.00;;;;;;;;;;5012884;28;20056;-66
2023/12/26 06:57:16;;;;;;;1.50;1.50;;;;;;;;;;5025519;28;20025;-67
2023/12/26 06:59:46;;;;;;;1.50;1.50;;;;;;;;;;5009790;28;20033;-67
2023/12/26 07:02:12;;;;;;;3.28;1.60;;;;;;;;;;5029123;28;20439;-67
2023/12/26 07:04:40;;;;;;;1.88;1.75;;;;;;;;;;5013056;28;20313;-66
2023/12/26 07:07:06;;;;;;;2.25;1.55;;;;;;;;;;5020990;28;20022;-66
2023/12/26 07:09:33;;;;;;;3.30;1.60;;;;;;;;;;5009901;28;20481;-67
2023/12/26 07:11:59;;;;;;;4.47;1.50;;;;;;;;;;5007387;28;20044;-67
2023/12/26 07:14:28;;;;;;;4.30;1.60;;;;;;;;;;5019976;28;20424;-67
2023/12/26 07:16:55;;;;;;;1.80;1.70;;;;;;;;;;5019263;28;20409;-66
2023/12/26 07:19:21;;;;;;;2.20;2.00;;;;;;;;;;5023407;28;20501;-67
2023/12/26 07:21:47;;;;;;;2.33;1.70;;;;;;;;;;5018849;28;20489;-67
2023/12/26 07:24:14;;;;;;;2.50;1.52;;;;;;;;;;5017450;28;20380;-67
2023/12/26 07:26:40;;;;;;;1.80;1.67;;;;;;;;;;5010243;28;20030;-67
2023/12/26 07:29:06;;;;;;;5.85;2.00;;;;;;;;;;5012397;28;20036;-67
2023/12/26 07:31:32;;;;;;;4.68;1.92;;;;;;;;;;5021098;28;20044;-67
2023/12/26 07:34:00;;;;;;;11.60;2.33;;;;;;;;;;5010042;28;20064;-66
2023/12/26 07:36:26;;;;;;;0.95;0.95;;;;;;;;;;5018402;28;20571;-66
2023/12/26 07:38:53;;;;;;;4.22;1.30;;;;;;;;;;5013835;28;20454;-66
2023/12/26 07:41:19;;;;;;;1.75;1.55;;;;;;;;;;5015550;28;20104;-66
2023/12/26 07:43:47;;;;;;;1.13;1.13;;;;;;;;;;5016751;28;20397;-67
2023/12/26 07:46:14;;;;;;;4.45;1.60;;;;;;;;;;5024585;28;20029;-66
2023/12/26 07:48:40;;;;;;;2.80;2.10;;;;;;;;;;5017940;28;20026;-65
2023/12/26 07:51:10;;;;;;;3.67;1.50;;;;;;;;;;5019654;28;20030;-67
2023/12/26 07:53:36;;;;;;;6.07;1.58;;;;;;;;;;5020632;28;20033;-67
2023/12/26 07:56:06;;;;;;;1.48;1.38;;;;;;;;;;5023910;28;20034;-68
2023/12/26 07:58:32;;;;;;;1.52;1.42;;;;;;;;;;5020655;28;20100;-68
2023/12/26 08:00:58;;;;;;;5.78;1.77;;;;;;;;;;5022403;28;20032;-68
2023/12/26 08:03:24;;;;;;;1.27;1.27;;;;;;;;;;5017624;28;20030;-69
2023/12/26 08:05:51;;;;;;;2.83;1.90;;;;;;;;;;5023439;28;20022;-68
2023/12/26 08:08:17;;;;;;;9.45;1.70;;;;;;;;;;5018524;28;20154;-68
2023/12/26 08:10:47;;;;;;;4.75;1.98;;;;;;;;;;5019284;28;20030;-70
2023/12/26 08:13:13;;;;;;;1.60;1.55;;;;;;;;;;5026543;28;20040;-68
2023/12/26 08:15:39;;;;;;;1.55;1.45;;;;;;;;;;5029149;28;20050;-68
2023/12/26 08:18:06;;;;;;;1.38;1.30;;;;;;;;;;5021695;28;20103;-69
2023/12/26 08:20:34;;;;;;;1.67;1.58;;;;;;;;;;5027070;28;20061;-68
2023/12/26 08:23:00;;;;;;;1.40;1.30;;;;;;;;;;5011689;28;20076;-68
2023/12/26 08:25:26;;;;;;;2.70;1.58;;;;;;;;;;5022927;28;20294;-69
2023/12/26 08:27:53;;;;;;;4.72;1.88;;;;;;;;;;5020837;28;20509;-67
2023/12/26 08:30:20;;;;;;;1.80;1.48;;;;;;;;;;5021052;28;20029;-68
2023/12/26 08:32:46;;;;;;;2.42;1.42;;;;;;;;;;5016650;28;20083;-69
2023/12/26 08:35:13;;;;;;;2.47;1.25;;;;;;;;;;5032904;28;20030;-67
2023/12/26 08:37:39;;;;;;;3.45;1.77;;;;;;;;;;5019184;28;20037;-68
2023/12/26 08:40:06;;;;;;;2.33;1.40;;;;;;;;;;5024923;28;20037;-68
2023/12/26 08:42:32;;;;;;;3.15;2.22;;;;;;;;;;5027243;28;20637;-69
2023/12/26 08:44:59;;;;;;;4.90;1.95;;;;;;;;;;5024854;28;20022;-68
2023/12/26 08:47:25;;;;;;;4.40;1.80;;;;;;;;;;5025923;28;20296;-69
2023/12/26 08:49:51;;;;;;;5.68;1.92;;;;;;;;;;5017753;28;20459;-69
2023/12/26 08:52:18;;;;;;;6.03;1.85;;;;;;;;;;5018644;28;20032;-69
2023/12/26 08:54:44;;;;;;;4.90;1.88;;;;;;;;;;5027125;28;20507;-69
2023/12/26 08:57:10;;;;;;;1.80;1.65;;;;;;;;;;5023282;28;20129;-69
2023/12/26 08:59:37;;;;;;;1.60;1.50;;;;;;;;;;5017717;28;20025;-68
2023/12/26 09:02:03;;;;;;;1.92;1.73;;;;;;;;;;5038413;28;20100;-68
2023/12/26 09:04:30;;;;;;;8.10;2.10;;;;;;;;;;5019085;28;20034;-69
2023/12/26 09:06:56;;;;;;;2.17;1.98;;;;;;;;;;5015975;28;20025;-69
2023/12/26 09:09:23;;;;;;;4.30;1.60;;;;;;;;;;5018510;28;20028;-69
2023/12/26 09:11:49;;;;;;;2.47;1.65;;;;;;;;;;5009473;28;20068;-69
2023/12/26 09:14:15;;;;;;;4.88;1.60;;;;;;;;;;5017839;28;20022;-69
2023/12/26 09:16:42;;;;;;;7.88;1.77;;;;;;;;;;5021415;28;20092;-67
2023/12/26 09:19:08;;;;;;;3.60;1.65;;;;;;;;;;5028221;28;20116;-68
2023/12/26 09:21:34;;;;;;;7.68;2.30;;;;;;;;;;5015969;28;20025;-68
2023/12/26 09:24:03;;;;;;;4.35;1.60;;;;;;;;;;5024061;28;20025;-68
2023/12/26 09:26:30;;;;;;;1.33;1.33;;;;;;;;;;5028929;28;20069;-68
2023/12/26 09:28:57;;;;;;;5.20;1.95;;;;;;;;;;5023026;28;20033;-68
2023/12/26 09:31:24;;;;;;;6.88;1.90;;;;;;;;;;5022308;28;20523;-68
2023/12/26 09:33:50;;;;;;;9.40;1.90;;;;;;;;;;5023495;28;20795;-69
2023/12/26 09:36:16;;;;;;;7.45;1.92;;;;;;;;;;5020563;28;20049;-69
2023/12/26 09:38:43;;;;;;;3.42;1.70;;;;;;;;;;5021409;28;20087;-68
2023/12/26 09:41:10;;;;;;;3.17;1.13;;;;;;;;;;5024858;28;20030;-68
2023/12/26 09:43:38;;;;;;;7.88;2.03;;;;;;;;;;5025760;28;20025;-69
2023/12/26 09:46:04;;;;;;;2.42;1.38;;;;;;;;;;5010344;28;20034;-69
2023/12/26 09:48:34;;;;;;;5.60;1.55;;;;;;;;;;5015858;28;20021;-69
2023/12/26 09:51:05;;;;;;;2.45;1.40;;;;;;;;;;5017006;28;20824;-69
2023/12/26 09:53:34;;;;;;;1.38;1.27;;;;;;;;;;5021106;28;20049;-69
2023/12/26 09:56:01;;;;;;;4.35;1.50;;;;;;;;;;5020140;28;20045;-69
2023/12/26 09:58:28;;;;;;;4.07;1.77;;;;;;;;;;5022014;28;20057;-68
2023/12/26 10:00:54;;;;;;;4.20;1.40;;;;;;;;;;5022963;28;20225;-69
2023/12/26 10:03:20;;;;;;;8.60;1.75;;;;;;;;;;5018121;28;20030;-69
2023/12/26 10:05:49;;;;;;;7.07;2.15;;;;;;;;;;5021809;28;20108;-68
2023/12/26 10:08:15;;;;;;;1.70;1.60;;;;;;;;;;5017966;28;20056;-69
2023/12/26 10:10:42;;;;;;;5.07;2.05;;;;;;;;;;5015869;28;20112;-69
2023/12/26 10:13:09;;;;;;;4.55;1.90;;;;;;;;;;5014970;28;20021;-69
2023/12/26 10:15:35;;;;;;;5.20;2.03;;;;;;;;;;5026086;28;20217;-69
2023/12/26 10:18:02;;;;;;;5.93;1.60;;;;;;;;;;5017838;28;20111;-68
2023/12/26 10:20:31;;;;;;;3.95;1.75;;;;;;;;;;5023473;28;20017;-69
2023/12/26 10:22:57;;;;;;;3.10;2.03;;;;;;;;;;5023553;28;20080;-68
2023/12/26 10:25:23;;;;;;;5.88;2.22;;;;;;;;;;5024927;28;20022;-69
2023/12/26 10:27:55;;;;;;;3.55;3.03;;;;;;;;;;5014203;28;20029;-67
2023/12/26 10:30:22;;;;;;;5.47;2.90;;;;;;;;;;5021691;28;20093;-69
2023/12/26 10:32:58;;;;;;;5.60;1.90;;;;;;;;;;5022391;28;20033;-69
2023/12/26 10:35:24;;;;;;;4.82;2.38;;;;;;;;;;5024168;28;20021;-69
2023/12/26 10:37:53;;;;;;;7.05;2.47;;;;;;;;;;5034210;28;20041;-69
2023/12/26 10:40:20;;;;;;;8.23;3.00;;;;;;;;;;5031941;28;20036;-67
2023/12/26 10:42:48;;;;;;;2.47;2.20;;;;;;;;;;5018600;28;20029;-69
2023/12/26 10:45:14;;;;;;;5.57;2.25;;;;;;;;;;5025977;28;20021;-70
2023/12/26 10:47:47;;;;;;;3.28;2.45;;;;;;;;;;5026759;28;20044;-68
2023/12/26 10:50:14;;;;;;;2.17;1.98;;;;;;;;;;5018626;28;20063;-68
2023/12/26 10:52:42;;;;;;;2.95;2.05;;;;;;;;;;5025942;28;20033;-69
2023/12/26 10:55:09;;;;;;;1.92;1.63;;;;;;;;;;5039712;28;20034;-69
2023/12/26 10:57:35;;;;;;;2.08;1.70;;;;;;;;;;5030721;28;20565;-68
2023/12/26 11:00:03;;;;;;;1.40;1.38;;;;;;;;;;5021915;28;20060;-69
2023/12/26 11:02:29;;;;;;;4.13;2.10;;;;;;;;;;5021967;28;21096;-69
2023/12/26 11:04:55;;;;;;;5.75;1.90;;;;;;;;;;5025359;28;20021;-69
2023/12/26 11:07:22;;;;;;;1.60;1.50;;;;;;;;;;5017182;28;20025;-69
2023/12/26 11:09:48;;;;;;;2.80;1.42;;;;;;;;;;5032404;28;20036;-69
2023/12/26 11:12:15;;;;;;;1.60;1.50;;;;;;;;;;5025902;28;20115;-68
2023/12/26 11:14:41;;;;;;;1.98;1.70;;;;;;;;;;5019753;28;20040;-69
2023/12/26 11:17:09;;;;;;;6.85;2.33;;;;;;;;;;5025650;28;20041;-69
2023/12/26 11:19:39;;;;;;;2.53;1.45;;;;;;;;;;5038658;28;20060;-69
2023/12/26 11:22:06;;;;;;;1.95;1.85;;;;;;;;;;5027841;28;20109;-69
2023/12/26 11:24:32;;;;;;;3.88;1.60;;;;;;;;;;5014944;28;20026;-68
2023/12/26 11:26:58;;;;;;;3.80;2.22;;;;;;;;;;5012090;28;20458;-69
2023/12/26 11:29:25;;;;;;;2.58;1.55;;;;;;;;;;5018715;28;20058;-69
2023/12/26 11:31:54;;;;;;;1.60;1.50;;;;;;;;;;5006431;28;20030;-69
2023/12/26 11:34:20;;;;;;;1.73;1.60;;;;;;;;;;5027252;28;20119;-68
2023/12/26 11:36:47;;;;;;;2.38;2.00;;;;;;;;;;5027372;28;20118;-69
2023/12/26 11:39:16;;;;;;;3.38;2.13;;;;;;;;;;5023886;28;20117;-69
2023/12/26 11:41:44;;;;;;;3.65;2.20;;;;;;;;;;5030675;28;20529;-67
2023/12/26 11:44:10;;;;;;;3.15;1.75;;;;;;;;;;5042489;28;20052;-68
2023/12/26 11:46:37;;;;;;;3.03;2.60;;;;;;;;;;5020895;28;20109;-69
2023/12/26 11:49:04;;;;;;;5.70;2.03;;;;;;;;;;5024934;28;20087;-69
2023/12/26 11:51:30;;;;;;;3.40;2.40;;;;;;;;;;5026201;28;20034;-69
2023/12/26 11:53:56;;;;;;;5.18;2.72;;;;;;;;;;5025667;28;20025;-68
2023/12/26 11:56:22;;;;;;;3.38;2.58;;;;;;;;;;5026069;28;20026;-69
2023/12/26 11:58:49;;;;;;;6.03;3.10;;;;;;;;;;5019496;28;20054;-68
2023/12/26 12:01:15;;;;;;;6.53;2.70;;;;;;;;;;5027094;28;20488;-67
2023/12/26 12:03:41;;;;;;;2.33;1.88;;;;;;;;;;5025520;28;20092;-68
2023/12/26 12:06:14;;;;;;;3.30;2.42;;;;;;;;;;5021974;28;20234;-69
2023/12/26 12:08:59;;;;;;;8.82;4.28;;;;;;;;;;5022467;28;20485;-69
2023/12/26 12:11:25;;;;;;;5.65;3.60;;;;;;;;;;5021914;28;20028;-69
2023/12/26 12:13:51;;;;;;;4.28;3.35;;;;;;;;;;5015231;28;20100;-69
2023/12/26 12:16:27;;;;;;;6.07;3.15;;;;;;;;;;5014611;28;20025;-68
2023/12/26 12:19:14;;;;;;;9.60;5.05;;;;;;;;;;5004896;28;20401;-68
2023/12/26 12:21:40;;;;;;;6.97;4.50;;;;;;;;;;5009341;28;20384;-69
2023/12/26 12:24:07;;;;;;;6.50;5.07;;;;;;;;;;5023480;28;20128;-68
2023/12/26 12:26:52;;;;;;;2.78;2.20;;;;;;;;;;5020795;28;20067;-69
2023/12/26 12:29:18;;;;;;;2.23;1.80;;;;;;;;;;5025496;28;20037;-68
2023/12/26 12:31:44;;;;;;;2.63;2.13;;;;;;;;;;5021459;28;20025;-69
2023/12/26 12:34:13;;;;;;;2.38;2.10;;;;;;;;;;5013375;28;20128;-69
2023/12/26 12:36:40;;;;;;;7.18;4.97;;;;;;;;;;5021532;28;20040;-69
2023/12/26 12:39:07;;;;;;;8.38;4.78;;;;;;;;;;5022668;28;20388;-69
2023/12/26 12:41:34;;;;;;;4.85;3.78;;;;;;;;;;5022119;28;20255;-68
2023/12/26 12:44:01;;;;;;;7.32;3.50;;;;;;;;;;5025733;28;20085;-68
2023/12/26 12:46:28;;;;;;;5.43;4.05;;;;;;;;;;5013075;28;20095;-68
2023/12/26 12:48:55;;;;;;;6.75;3.55;;;;;;;;;;5045143;28;20032;-69
2023/12/26 12:51:25;;;;;;;5.40;2.67;;;;;;;;;;5031903;28;20068;-69
2023/12/26 12:53:51;;;;;;;4.80;2.72;;;;;;;;;;5016510;28;20026;-68
2023/12/26 12:56:17;;;;;;;3.45;2.58;;;;;;;;;;5021861;28;20029;-68
2023/12/26 12:58:43;;;;;;;4.72;3.17;;;;;;;;;;5025062;28;20065;-69
2023/12/26 13:01:10;;;;;;;8.70;4.35;;;;;;;;;;5018824;28;20034;-69
2023/12/26 13:03:36;;;;;;;9.73;6.32;;;;;;;;;;5020326;28;20029;-70
2023/12/26 13:06:02;;;;;;;3.72;3.20;;;;;;;;;;5029344;28;20033;-68
2023/12/26 13:08:29;;;;;;;3.20;2.40;;;;;;;;;;5017813;28;20017;-70
2023/12/26 13:10:55;;;;;;;8.57;3.00;;;;;;;;;;5024622;28;20377;-69
2023/12/26 13:13:21;;;;;;;6.55;3.15;;;;;;;;;;5021726;28;20433;-68
2023/12/26 13:15:47;;;;;;;6.50;4.18;;;;;;;;;;5026480;28;20159;-68
2023/12/26 13:18:14;;;;;;;3.72;3.10;;;;;;;;;;5021349;28;20080;-69
2023/12/26 13:20:40;;;;;;;4.13;2.92;;;;;;;;;;5027423;28;20493;-70
2023/12/26 13:23:06;;;;;;;10.70;4.32;;;;;;;;;;5012890;28;20035;-69
2023/12/26 13:25:38;;;;;;;12.25;5.05;;;;;;;;;;5011834;28;20033;-69
2023/12/26 13:28:08;;;;;;;5.95;3.65;;;;;;;;;;5017820;28;20075;-69
2023/12/26 13:30:34;;;;;;;6.10;4.18;;;;;;;;;;5019538;28;20397;-69
2023/12/26 13:33:00;;;;;;;12.35;4.93;;;;;;;;;;5011658;28;20040;-69
2023/12/26 13:35:27;;;;;;;9.45;5.40;;;;;;;;;;5019053;28;20041;-69
2023/12/26 13:37:53;;;;;;;12.15;6.03;;;;;;;;;;5026806;28;20138;-68
2023/12/26 13:40:19;;;;;;;10.48;7.32;;;;;;;;;;5019208;28;20013;-68
2023/12/26 13:42:45;;;;;;;6.55;5.18;;;;;;;;;;5014511;28;20076;-69
2023/12/26 13:45:13;;;;;;;6.53;5.40;;;;;;;;;;5020649;28;20330;-70
2023/12/26 13:47:42;;;;;;;9.20;6.35;;;;;;;;;;5020047;28;20481;-70
2023/12/26 13:50:11;;;;;;;9.68;5.25;;;;;;;;;;5018934;28;20048;-69
2023/12/26 13:52:38;;;;;;;11.52;5.72;;;;;;;;;;5010922;28;20052;-70
2023/12/26 13:55:04;;;;;;;7.45;3.83;;;;;;;;;;5012448;28;20029;-71
2023/12/26 13:57:30;;;;;;;10.57;6.15;;;;;;;;;;5017794;28;20199;-70
2023/12/26 13:59:56;;;;;;;5.88;4.90;;;;;;;;;;5022523;28;20563;-70
2023/12/26 14:02:22;;;;;;;10.00;5.05;;;;;;;;;;5021031;28;20051;-69
2023/12/26 14:04:49;;;;;;;7.00;4.25;;;;;;;;;;5015952;28;20125;-70
2023/12/26 14:07:19;;;;;;;7.72;4.70;;;;;;;;;;5035145;28;20028;-70
2023/12/26 14:09:45;;;;;;;15.95;6.68;;;;;;;;;;5022576;28;20032;-69
2023/12/26 14:12:12;;;;;;;8.77;7.07;;;;;;;;;;5018747;28;20116;-68
2023/12/26 14:14:41;;;;;;;11.55;7.82;;;;;;;;;;5021135;28;20045;-69
2023/12/26 14:17:08;;;;;;;10.45;7.68;;;;;;;;;;5023794;28;20030;-68
2023/12/26 14:19:34;;;;;;;11.10;7.13;;;;;;;;;;5025687;28;20029;-70
2023/12/26 14:22:02;;;;;;;15.32;6.40;;;;;;;;;;5023674;28;20053;-68
2023/12/26 14:24:28;;;;;;;10.48;6.45;;;;;;;;;;5025424;28;20028;-68
2023/12/26 14:27:03;;;;;;;13.15;6.30;;;;;;;;;;5025904;28;20036;-68
2023/12/26 14:29:30;;;;;;;8.85;6.03;;;;;;;;;;5023442;28;20489;-69
2023/12/26 14:31:56;;;;;;;6.95;5.50;;;;;;;;;;5024756;28;20113;-68
2023/12/26 14:34:22;;;;;;;7.22;6.43;;;;;;;;;;5016487;28;20462;-68
2023/12/26 14:36:49;;;;;;;8.45;5.15;;;;;;;;;;5022199;28;20029;-68
2023/12/26 14:39:15;;;;;;;14.43;7.03;;;;;;;;;;5018805;28;20033;-67